Time,TemperatureF,DewpointF,PressureIn,WindDirection,WindDirectionDegrees,WindSpeedMPH,WindSpeedGustMPH,Humidity,HourlyPrecipIn,Conditions,Clouds,dailyrainin,SoftwareType,DateUTC
2013-02-18 00:12:00,26.1,16.0,30.33,North,5,0.0,0.0,65,0.00,,,0.00,weatherlink.com 1.10,2013-02-18 05:12:00,
2013-02-18 00:26:00,25.7,15.0,30.33,North,5,0.0,0.0,65,0.00,,,0.00,weatherlink.com 1.10,2013-02-18 05:26:00,
2013-02-18 00:42:00,25.4,15.0,30.34,North,5,0.0,0.0,66,0.00,,,0.00,weatherlink.com 1.10,2013-02-18 05:42:00,
2013-02-18 00:56:00,25.1,16.0,30.34,North,5,0.0,0.0,68,0.00,,,0.00,weatherlink.com 1.10,2013-02-18 05:56:00,
2013-02-18 01:11:00,24.9,16.0,30.34,North,5,0.0,0.0,70,0.00,,,0.00,weatherlink.com 1.10,2013-02-18 06:11:00,
2013-02-18 01:26:00,24.7,16.0,30.34,North,5,0.0,0.0,70,0.00,,,0.00,weatherlink.com 1.10,2013-02-18 06:26:00,
2013-02-18 01:42:00,24.3,16.0,30.34,North,5,0.0,0.0,71,0.00,,,0.00,weatherlink.com 1.10,2013-02-18 06:42:00,
2013-02-18 01:56:00,24.0,16.0,30.35,North,5,0.0,0.0,72,0.00,,,0.00,weatherlink.com 1.10,2013-02-18 06:56:00,
2013-02-18 02:11:00,23.8,16.0,30.34,North,5,0.0,0.0,73,0.00,,,0.00,weatherlink.com 1.10,2013-02-18 07:11:00,
2013-02-18 02:27:00,23.4,16.0,30.34,North,5,0.0,0.0,73,0.00,,,0.00,weatherlink.com 1.10,2013-02-18 07:27:00,
2013-02-18 02:42:00,23.1,16.0,30.35,North,5,0.0,0.0,74,0.00,,,0.00,weatherlink.com 1.10,2013-02-18 07:42:00,
2013-02-18 02:57:00,22.9,16.0,30.35,North,5,0.0,0.0,75,0.00,,,0.00,weatherlink.com 1.10,2013-02-18 07:57:00,
2013-02-18 03:12:00,22.7,16.0,30.35,North,5,0.0,1.0,75,0.00,,,0.00,weatherlink.com 1.10,2013-02-18 08:12:00,
2013-02-18 03:27:00,22.6,16.0,30.35,North,5,0.0,0.0,75,0.00,,,0.00,weatherlink.com 1.10,2013-02-18 08:27:00,
2013-02-18 03:42:00,22.3,16.0,30.35,North,5,0.0,0.0,75,0.00,,,0.00,weatherlink.com 1.10,2013-02-18 08:42:00,
2013-02-18 03:57:00,22.2,16.0,30.36,North,5,0.0,0.0,76,0.00,,,0.00,weatherlink.com 1.10,2013-02-18 08:57:00,
2013-02-18 04:12:00,22.2,16.0,30.36,North,5,0.0,0.0,77,0.00,,,0.00,weatherlink.com 1.10,2013-02-18 09:12:00,
2013-02-18 04:27:00,22.0,16.0,30.37,North,5,0.0,0.0,77,0.00,,,0.00,weatherlink.com 1.10,2013-02-18 09:27:00,
2013-02-18 04:42:00,21.9,16.0,30.37,North,5,0.0,0.0,77,0.00,,,0.00,weatherlink.com 1.10,2013-02-18 09:42:00,
2013-02-18 04:57:00,21.7,16.0,30.37,North,5,0.0,0.0,78,0.00,,,0.00,weatherlink.com 1.10,2013-02-18 09:57:00,
2013-02-18 05:12:00,21.5,16.0,30.39,North,5,0.0,1.0,78,0.00,,,0.00,weatherlink.com 1.10,2013-02-18 10:12:00,
2013-02-18 05:27:00,21.3,15.0,30.39,North,5,0.0,0.0,78,0.00,,,0.00,weatherlink.com 1.10,2013-02-18 10:27:00,
2013-02-18 05:42:00,21.2,15.0,30.40,North,5,0.0,0.0,77,0.00,,,0.00,weatherlink.com 1.10,2013-02-18 10:42:00,
2013-02-18 05:57:00,20.9,15.0,30.40,North,5,0.0,0.0,77,0.00,,,0.00,weatherlink.com 1.10,2013-02-18 10:57:00,
2013-02-18 06:12:00,20.7,15.0,30.41,North,5,0.0,0.0,78,0.00,,,0.00,weatherlink.com 1.10,2013-02-18 11:12:00,
2013-02-18 06:27:00,20.7,15.0,30.41,North,5,0.0,0.0,79,0.00,,,0.00,weatherlink.com 1.10,2013-02-18 11:27:00,
2013-02-18 06:42:00,20.7,15.0,30.41,North,5,0.0,0.0,79,0.00,,,0.00,weatherlink.com 1.10,2013-02-18 11:42:00,
2013-02-18 06:57:00,20.7,15.0,30.42,North,5,0.0,0.0,79,0.00,,,0.00,weatherlink.com 1.10,2013-02-18 11:57:00,
2013-02-18 07:12:00,20.7,15.0,30.42,North,5,0.0,0.0,78,0.00,,,0.00,weatherlink.com 1.10,2013-02-18 12:12:00,
2013-02-18 07:27:00,20.7,15.0,30.42,North,5,0.0,0.0,78,0.00,,,0.00,weatherlink.com 1.10,2013-02-18 12:27:00,
2013-02-18 07:42:00,20.7,15.0,30.43,North,5,0.0,0.0,78,0.00,,,0.00,weatherlink.com 1.10,2013-02-18 12:42:00,
2013-02-18 07:57:00,20.9,15.0,30.43,North,9,0.0,0.0,79,0.00,,,0.00,weatherlink.com 1.10,2013-02-18 12:57:00,
2013-02-18 08:12:00,21.5,16.0,30.44,North,5,0.0,0.0,80,0.00,,,0.00,weatherlink.com 1.10,2013-02-18 13:12:00,
2013-02-18 08:29:00,22.4,17.0,30.45,North,9,0.0,0.0,81,0.00,,,0.00,weatherlink.com 1.10,2013-02-18 13:29:00,
2013-02-18 08:42:00,23.6,19.0,30.45,North,5,0.0,0.0,81,0.00,,,0.00,weatherlink.com 1.10,2013-02-18 13:42:00,
2013-02-18 08:58:00,25.3,19.0,30.45,North,5,0.0,0.0,76,0.00,,,0.00,weatherlink.com 1.10,2013-02-18 13:58:00,
2013-02-18 09:12:00,27.3,19.0,30.45,NE,54,0.0,2.0,70,0.00,,,0.00,weatherlink.com 1.10,2013-02-18 14:12:00,
2013-02-18 09:28:00,29.3,19.0,30.45,NE,56,1.0,2.0,65,0.00,,,0.00,weatherlink.com 1.10,2013-02-18 14:28:00,
2013-02-18 09:42:00,31.5,18.0,30.45,SE,145,1.0,2.0,57,0.00,,,0.00,weatherlink.com 1.10,2013-02-18 14:42:00,
2013-02-18 09:57:00,33.1,18.0,30.45,SE,134,0.0,3.0,55,0.00,,,0.00,weatherlink.com 1.10,2013-02-18 14:57:00,
2013-02-18 10:28:00,36.8,19.0,30.44,SE,140,0.0,4.0,48,0.00,,,0.00,weatherlink.com 1.10,2013-02-18 15:28:00,
2013-02-18 10:43:00,38.6,20.0,30.45,SE,136,1.0,3.0,48,0.00,,,0.00,weatherlink.com 1.10,2013-02-18 15:43:00,
2013-02-18 10:58:00,40.3,20.0,30.44,SSW,212,0.0,3.0,44,0.00,,,0.00,weatherlink.com 1.10,2013-02-18 15:58:00,
2013-02-18 11:13:00,42.5,18.0,30.44,South,174,1.0,3.0,37,0.01,,,0.01,weatherlink.com 1.10,2013-02-18 16:13:00,
2013-02-18 11:28:00,43.9,20.0,30.43,SE,137,3.0,6.0,38,0.01,,,0.01,weatherlink.com 1.10,2013-02-18 16:28:00,
2013-02-18 11:43:00,44.9,18.0,30.44,SSW,202,1.0,3.0,34,0.02,,,0.02,weatherlink.com 1.10,2013-02-18 16:43:00,
2013-02-18 11:58:00,45.7,19.0,30.43,SE,140,3.0,4.0,34,0.03,,,0.03,weatherlink.com 1.10,2013-02-18 16:58:00,
2013-02-18 12:13:00,46.7,20.0,30.42,SE,130,1.0,4.0,34,0.03,,,0.04,weatherlink.com 1.10,2013-02-18 17:13:00,
2013-02-18 12:28:00,47.1,19.0,30.41,SSW,192,2.0,7.0,33,0.03,,,0.04,weatherlink.com 1.10,2013-02-18 17:28:00,
2013-02-18 12:43:00,47.8,17.0,30.39,SE,143,3.0,3.0,29,0.02,,,0.04,weatherlink.com 1.10,2013-02-18 17:43:00,
2013-02-18 12:58:00,48.5,20.0,30.39,SSE,167,1.0,4.0,32,0.02,,,0.05,weatherlink.com 1.10,2013-02-18 17:58:00,
2013-02-18 13:13:00,49.1,19.0,30.38,WSW,242,0.0,4.0,31,0.01,,,0.05,weatherlink.com 1.10,2013-02-18 18:13:00,
2013-02-18 13:29:00,50.1,19.0,30.37,North,360,3.0,4.0,29,0.01,,,0.05,weatherlink.com 1.10,2013-02-18 18:29:00,
2013-02-18 13:44:00,50.6,22.0,30.36,SSW,205,0.0,4.0,33,0.02,,,0.06,weatherlink.com 1.10,2013-02-18 18:44:00,
2013-02-18 13:58:00,50.8,22.0,30.35,SE,127,4.0,7.0,33,0.01,,,0.06,weatherlink.com 1.10,2013-02-18 18:58:00,
2013-02-18 14:14:00,50.7,22.0,30.35,ESE,120,4.0,5.0,32,0.01,,,0.06,weatherlink.com 1.10,2013-02-18 19:14:00,
2013-02-18 14:29:00,50.7,21.0,30.35,South,182,1.0,5.0,31,0.01,,,0.06,weatherlink.com 1.10,2013-02-18 19:29:00,
2013-02-18 14:44:00,51.1,22.0,30.34,South,182,3.0,6.0,32,0.00,,,0.06,weatherlink.com 1.10,2013-02-18 19:44:00,
2013-02-18 14:58:00,51.9,23.0,30.34,South,173,1.0,5.0,32,0.00,,,0.06,weatherlink.com 1.10,2013-02-18 19:58:00,
2013-02-18 15:13:00,52.0,21.0,30.34,SSE,166,1.0,6.0,30,0.00,,,0.06,weatherlink.com 1.10,2013-02-18 20:13:00,
2013-02-18 15:28:00,51.4,20.0,30.34,SSE,153,3.0,5.0,29,0.00,,,0.06,weatherlink.com 1.10,2013-02-18 20:28:00,
2013-02-18 15:43:00,51.5,22.0,30.33,SE,131,1.0,3.0,31,0.00,,,0.06,weatherlink.com 1.10,2013-02-18 20:43:00,
2013-02-18 15:59:00,51.3,22.0,30.34,SE,134,3.0,8.0,32,0.00,,,0.06,weatherlink.com 1.10,2013-02-18 20:59:00,
2013-02-18 16:13:00,51.6,21.0,30.33,West,269,1.0,9.0,30,0.00,,,0.06,weatherlink.com 1.10,2013-02-18 21:13:00,
2013-02-18 16:28:00,51.2,21.0,30.33,South,183,0.0,3.0,31,0.00,,,0.06,weatherlink.com 1.10,2013-02-18 21:28:00,
2013-02-18 16:43:00,50.3,21.0,30.33,South,180,2.0,4.0,32,0.00,,,0.06,weatherlink.com 1.10,2013-02-18 21:43:00,
2013-02-18 16:58:00,49.3,22.0,30.33,SSE,167,0.0,4.0,34,0.00,,,0.06,weatherlink.com 1.10,2013-02-18 21:58:00,
2013-02-18 17:14:00,48.5,21.0,30.33,SSE,157,1.0,2.0,34,0.00,,,0.06,weatherlink.com 1.10,2013-02-18 22:14:00,
2013-02-18 17:29:00,47.8,22.0,30.32,SSE,159,0.0,2.0,36,0.00,,,0.06,weatherlink.com 1.10,2013-02-18 22:29:00,
2013-02-18 17:44:00,47.2,23.0,30.33,ESE,119,1.0,2.0,38,0.00,,,0.06,weatherlink.com 1.10,2013-02-18 22:44:00,
2013-02-18 17:59:00,46.4,24.0,30.33,ESE,119,0.0,1.0,41,0.00,,,0.06,weatherlink.com 1.10,2013-02-18 22:59:00,
2013-02-18 18:14:00,45.4,23.0,30.33,ESE,119,0.0,1.0,42,0.00,,,0.06,weatherlink.com 1.10,2013-02-18 23:14:00,
2013-02-18 18:29:00,44.5,24.0,30.34,ESE,119,0.0,0.0,44,0.00,,,0.06,weatherlink.com 1.10,2013-02-18 23:29:00,
2013-02-18 18:44:00,43.7,22.0,30.34,ESE,119,0.0,0.0,43,0.00,,,0.06,weatherlink.com 1.10,2013-02-18 23:44:00,
2013-02-18 18:59:00,43.0,23.0,30.34,ESE,119,0.0,0.0,46,0.00,,,0.06,weatherlink.com 1.10,2013-02-18 23:59:00,
2013-02-18 19:29:00,41.6,22.0,30.33,ESE,119,0.0,0.0,46,0.00,,,0.06,weatherlink.com 1.10,2013-02-19 00:29:00,
2013-02-18 19:44:00,41.1,22.0,30.33,ESE,119,0.0,0.0,47,0.00,,,0.06,weatherlink.com 1.10,2013-02-19 00:44:00,
2013-02-18 19:59:00,40.6,22.0,30.33,ESE,119,0.0,1.0,48,0.00,,,0.06,weatherlink.com 1.10,2013-02-19 00:59:00,
2013-02-18 20:14:00,40.1,23.0,30.32,ESE,119,0.0,1.0,50,0.00,,,0.06,weatherlink.com 1.10,2013-02-19 01:14:00,
2013-02-18 20:29:00,39.6,24.0,30.33,ESE,118,0.0,0.0,53,0.00,,,0.06,weatherlink.com 1.10,2013-02-19 01:29:00,
2013-02-18 20:44:00,39.1,21.0,30.32,ESE,119,0.0,0.0,49,0.00,,,0.06,weatherlink.com 1.10,2013-02-19 01:44:00,
2013-02-18 20:59:00,38.9,22.0,30.32,ESE,119,0.0,1.0,50,0.00,,,0.06,weatherlink.com 1.10,2013-02-19 01:59:00,
2013-02-18 21:14:00,38.7,21.0,30.32,ESE,119,0.0,1.0,50,0.00,,,0.06,weatherlink.com 1.10,2013-02-19 02:14:00,
2013-02-18 21:29:00,38.6,23.0,30.32,SE,142,1.0,4.0,53,0.00,,,0.06,weatherlink.com 1.10,2013-02-19 02:29:00,
2013-02-18 21:44:00,39.6,23.0,30.31,SSE,159,1.0,4.0,51,0.00,,,0.06,weatherlink.com 1.10,2013-02-19 02:44:00,
2013-02-18 22:14:00,40.5,24.0,30.31,SSE,168,1.0,4.0,52,0.00,,,0.06,weatherlink.com 1.10,2013-02-19 03:14:00,
2013-02-18 22:29:00,40.8,24.0,30.31,SE,135,4.0,4.0,52,0.00,,,0.06,weatherlink.com 1.10,2013-02-19 03:29:00,
2013-02-18 22:44:00,40.9,24.0,30.31,SE,132,1.0,4.0,52,0.00,,,0.06,weatherlink.com 1.10,2013-02-19 03:44:00,
2013-02-18 22:59:00,40.7,25.0,30.30,SSE,148,0.0,4.0,53,0.00,,,0.06,weatherlink.com 1.10,2013-02-19 03:59:00,
2013-02-18 23:14:00,40.6,26.0,30.30,ESE,119,0.0,10.0,56,0.00,,,0.06,weatherlink.com 1.10,2013-02-19 04:14:00,
2013-02-18 23:29:00,40.5,25.0,30.30,SSE,153,0.0,4.0,55,0.00,,,0.06,weatherlink.com 1.10,2013-02-19 04:29:00,
2013-02-18 23:44:00,40.2,26.0,30.30,SE,136,0.0,5.0,57,0.00,,,0.06,weatherlink.com 1.10,2013-02-19 04:44:00,
2013-02-18 23:59:00,40.3,26.0,30.29,South,171,1.0,3.0,58,0.00,,,0.06,weatherlink.com 1.10,2013-02-19 04:59:00,